sensor_id;sensor_type;location;lat;lon;timestamp;temperature;humidity
38118;DHT22;23928;47.562;7.508;2022-10-16T00:01:24;14.10;99.90
38118;DHT22;23928;47.562;7.508;2022-10-16T00:03:50;14.10;99.90
38118;DHT22;23928;47.562;7.508;2022-10-16T00:06:18;14.10;99.90
38118;DHT22;23928;47.562;7.508;2022-10-16T00:08:44;14.10;99.90
38118;DHT22;23928;47.562;7.508;2022-10-16T00:11:13;14.10;99.90
38118;DHT22;23928;47.562;7.508;2022-10-16T00:13:41;14.20;99.90
38118;DHT22;23928;47.562;7.508;2022-10-16T00:16:07;14.20;99.90
38118;DHT22;23928;47.562;7.508;2022-10-16T00:18:33;14.20;99.90
38118;DHT22;23928;47.562;7.508;2022-10-16T00:21:04;14.10;99.90
38118;DHT22;23928;47.562;7.508;2022-10-16T00:23:30;14.20;99.90
38118;DHT22;23928;47.562;7.508;2022-10-16T00:25:57;14.30;99.90
38118;DHT22;23928;47.562;7.508;2022-10-16T00:28:23;14.20;99.90
38118;DHT22;23928;47.562;7.508;2022-10-16T00:30:49;14.30;99.90
38118;DHT22;23928;47.562;7.508;2022-10-16T00:33:15;14.30;99.90
38118;DHT22;23928;47.562;7.508;2022-10-16T00:35:40;14.20;99.90
38118;DHT22;23928;47.562;7.508;2022-10-16T00:38:09;14.20;99.90
38118;DHT22;23928;47.562;7.508;2022-10-16T00:40:38;14.20;99.90
38118;DHT22;23928;47.562;7.508;2022-10-16T00:43:32;14.20;99.90
38118;DHT22;23928;47.562;7.508;2022-10-16T00:45:59;14.10;99.90
38118;DHT22;23928;47.562;7.508;2022-10-16T00:48:25;14.00;99.90
38118;DHT22;23928;47.562;7.508;2022-10-16T00:50:51;14.00;99.90
38118;DHT22;23928;47.562;7.508;2022-10-16T00:53:17;14.00;99.90
38118;DHT22;23928;47.562;7.508;2022-10-16T00:55:43;14.00;99.90
38118;DHT22;23928;47.562;7.508;2022-10-16T00:58:09;14.00;99.90
38118;DHT22;23928;47.562;7.508;2022-10-16T01:00:35;14.10;99.90
38118;DHT22;23928;47.562;7.508;2022-10-16T01:03:01;13.90;99.90
38118;DHT22;23928;47.562;7.508;2022-10-16T01:05:38;14.00;99.90
38118;DHT22;23928;47.562;7.508;2022-10-16T01:09:11;14.00;99.90
38118;DHT22;23928;47.562;7.508;2022-10-16T01:12:01;14.00;99.90
38118;DHT22;23928;47.562;7.508;2022-10-16T01:14:37;14.00;99.90
38118;DHT22;23928;47.562;7.508;2022-10-16T01:22:25;14.00;99.90
38118;DHT22;23928;47.562;7.508;2022-10-16T01:24:52;14.00;99.90
38118;DHT22;23928;47.562;7.508;2022-10-16T01:27:30;13.90;99.90
38118;DHT22;23928;47.562;7.508;2022-10-16T01:30:11;13.90;99.90
38118;DHT22;23928;47.562;7.508;2022-10-16T01:33:01;13.90;99.90
38118;DHT22;23928;47.562;7.508;2022-10-16T01:35:40;13.80;99.90
38118;DHT22;23928;47.562;7.508;2022-10-16T01:38:14;13.80;99.90
38118;DHT22;23928;47.562;7.508;2022-10-16T01:40:49;13.80;99.90
38118;DHT22;23928;47.562;7.508;2022-10-16T01:43:18;13.80;99.90
38118;DHT22;23928;47.562;7.508;2022-10-16T01:45:46;13.80;99.90
38118;DHT22;23928;47.562;7.508;2022-10-16T01:48:16;13.70;99.90
38118;DHT22;23928;47.562;7.508;2022-10-16T01:50:44;13.60;99.90
38118;DHT22;23928;47.562;7.508;2022-10-16T01:53:12;13.60;99.90
38118;DHT22;23928;47.562;7.508;2022-10-16T01:55:43;13.60;99.90
38118;DHT22;23928;47.562;7.508;2022-10-16T01:58:12;13.70;99.90
38118;DHT22;23928;47.562;7.508;2022-10-16T02:00:42;13.60;99.90
38118;DHT22;23928;47.562;7.508;2022-10-16T02:03:11;13.60;99.90
38118;DHT22;23928;47.562;7.508;2022-10-16T02:05:46;13.60;99.90
38118;DHT22;23928;47.562;7.508;2022-10-16T02:08:12;13.70;99.90
38118;DHT22;23928;47.562;7.508;2022-10-16T02:10:38;13.60;99.90
38118;DHT22;23928;47.562;7.508;2022-10-16T02:13:21;13.60;99.90
38118;DHT22;23928;47.562;7.508;2022-10-16T02:15:47;13.60;99.90
38118;DHT22;23928;47.562;7.508;2022-10-16T02:18:13;13.50;99.90
38118;DHT22;23928;47.562;7.508;2022-10-16T02:20:52;13.50;99.90
38118;DHT22;23928;47.562;7.508;2022-10-16T02:23:37;13.50;99.90
38118;DHT22;23928;47.562;7.508;2022-10-16T02:26:07;13.50;99.90
38118;DHT22;23928;47.562;7.508;2022-10-16T02:28:45;13.70;99.90
38118;DHT22;23928;47.562;7.508;2022-10-16T02:31:13;13.70;99.90
38118;DHT22;23928;47.562;7.508;2022-10-16T02:33:42;13.60;99.90
38118;DHT22;23928;47.562;7.508;2022-10-16T02:36:09;13.60;99.90
38118;DHT22;23928;47.562;7.508;2022-10-16T02:38:36;13.50;99.90
38118;DHT22;23928;47.562;7.508;2022-10-16T02:41:03;13.50;99.90
38118;DHT22;23928;47.562;7.508;2022-10-16T02:43:29;13.50;99.90
38118;DHT22;23928;47.562;7.508;2022-10-16T02:45:55;13.40;99.90
38118;DHT22;23928;47.562;7.508;2022-10-16T02:48:21;13.40;99.90
38118;DHT22;23928;47.562;7.508;2022-10-16T02:50:46;13.40;99.90
38118;DHT22;23928;47.562;7.508;2022-10-16T02:53:12;13.50;99.90
38118;DHT22;23928;47.562;7.508;2022-10-16T02:55:37;13.40;99.90
38118;DHT22;23928;47.562;7.508;2022-10-16T02:58:03;13.50;99.90
38118;DHT22;23928;47.562;7.508;2022-10-16T03:00:28;13.50;99.90
38118;DHT22;23928;47.562;7.508;2022-10-16T03:02:54;13.40;99.90
38118;DHT22;23928;47.562;7.508;2022-10-16T03:05:20;13.40;99.90
38118;DHT22;23928;47.562;7.508;2022-10-16T03:07:45;13.50;99.90
38118;DHT22;23928;47.562;7.508;2022-10-16T03:10:11;13.50;99.90
38118;DHT22;23928;47.562;7.508;2022-10-16T03:12:36;13.50;99.90
38118;DHT22;23928;47.562;7.508;2022-10-16T03:15:03;13.50;99.90
38118;DHT22;23928;47.562;7.508;2022-10-16T03:17:29;13.50;99.90
38118;DHT22;23928;47.562;7.508;2022-10-16T03:19:54;13.50;99.90
38118;DHT22;23928;47.562;7.508;2022-10-16T03:22:20;13.50;99.90
38118;DHT22;23928;47.562;7.508;2022-10-16T03:24:45;13.50;99.90
38118;DHT22;23928;47.562;7.508;2022-10-16T03:27:11;13.50;99.90
38118;DHT22;23928;47.562;7.508;2022-10-16T03:29:36;13.50;99.90
38118;DHT22;23928;47.562;7.508;2022-10-16T03:32:02;13.50;99.90
38118;DHT22;23928;47.562;7.508;2022-10-16T03:34:28;13.50;99.90
38118;DHT22;23928;47.562;7.508;2022-10-16T03:36:53;13.50;99.90
38118;DHT22;23928;47.562;7.508;2022-10-16T03:39:19;13.50;99.90
38118;DHT22;23928;47.562;7.508;2022-10-16T03:41:45;13.60;99.90
38118;DHT22;23928;47.562;7.508;2022-10-16T03:44:12;13.60;99.90
38118;DHT22;23928;47.562;7.508;2022-10-16T03:46:37;13.60;99.90
38118;DHT22;23928;47.562;7.508;2022-10-16T03:49:03;13.50;99.90
38118;DHT22;23928;47.562;7.508;2022-10-16T03:51:28;13.50;99.90
38118;DHT22;23928;47.562;7.508;2022-10-16T03:53:54;13.50;99.90
38118;DHT22;23928;47.562;7.508;2022-10-16T03:56:19;13.50;99.90
38118;DHT22;23928;47.562;7.508;2022-10-16T03:58:45;13.50;99.90
38118;DHT22;23928;47.562;7.508;2022-10-16T04:01:10;13.50;99.90
38118;DHT22;23928;47.562;7.508;2022-10-16T04:03:36;13.50;99.90
38118;DHT22;23928;47.562;7.508;2022-10-16T04:06:02;13.50;99.90
38118;DHT22;23928;47.562;7.508;2022-10-16T04:08:27;13.50;99.90
38118;DHT22;23928;47.562;7.508;2022-10-16T04:10:53;13.50;99.90
38118;DHT22;23928;47.562;7.508;2022-10-16T04:13:18;13.50;99.90
38118;DHT22;23928;47.562;7.508;2022-10-16T04:15:45;13.50;99.90
38118;DHT22;23928;47.562;7.508;2022-10-16T04:18:11;13.50;99.90
38118;DHT22;23928;47.562;7.508;2022-10-16T04:20:36;13.60;99.90
38118;DHT22;23928;47.562;7.508;2022-10-16T04:23:02;13.60;99.90
38118;DHT22;23928;47.562;7.508;2022-10-16T04:25:28;13.60;99.90
38118;DHT22;23928;47.562;7.508;2022-10-16T04:27:54;13.60;99.90
38118;DHT22;23928;47.562;7.508;2022-10-16T04:30:20;13.50;99.90
38118;DHT22;23928;47.562;7.508;2022-10-16T04:32:52;13.50;99.90
38118;DHT22;23928;47.562;7.508;2022-10-16T04:35:19;13.50;99.90
38118;DHT22;23928;47.562;7.508;2022-10-16T04:37:45;13.40;99.90
38118;DHT22;23928;47.562;7.508;2022-10-16T04:40:11;13.40;99.90
38118;DHT22;23928;47.562;7.508;2022-10-16T04:42:37;13.40;99.90
38118;DHT22;23928;47.562;7.508;2022-10-16T04:45:04;13.40;99.90
38118;DHT22;23928;47.562;7.508;2022-10-16T04:47:30;13.40;99.90
38118;DHT22;23928;47.562;7.508;2022-10-16T04:49:55;13.40;99.90
38118;DHT22;23928;47.562;7.508;2022-10-16T04:52:21;13.50;99.90
38118;DHT22;23928;47.562;7.508;2022-10-16T04:54:49;13.40;99.90
38118;DHT22;23928;47.562;7.508;2022-10-16T04:57:16;13.40;99.90
38118;DHT22;23928;47.562;7.508;2022-10-16T04:59:42;13.30;99.90
38118;DHT22;23928;47.562;7.508;2022-10-16T05:02:07;13.40;99.90
38118;DHT22;23928;47.562;7.508;2022-10-16T05:04:33;13.40;99.90
38118;DHT22;23928;47.562;7.508;2022-10-16T05:06:58;13.40;99.90
38118;DHT22;23928;47.562;7.508;2022-10-16T05:09:24;13.40;99.90
38118;DHT22;23928;47.562;7.508;2022-10-16T05:11:49;13.50;99.90
38118;DHT22;23928;47.562;7.508;2022-10-16T05:14:15;13.50;99.90
38118;DHT22;23928;47.562;7.508;2022-10-16T05:16:41;13.50;99.90
38118;DHT22;23928;47.562;7.508;2022-10-16T05:19:06;13.50;99.90
38118;DHT22;23928;47.562;7.508;2022-10-16T05:21:32;13.50;99.90
38118;DHT22;23928;47.562;7.508;2022-10-16T05:23:57;13.60;99.90
38118;DHT22;23928;47.562;7.508;2022-10-16T05:26:23;13.60;99.90
38118;DHT22;23928;47.562;7.508;2022-10-16T05:28:49;13.60;99.90
38118;DHT22;23928;47.562;7.508;2022-10-16T05:31:15;13.60;99.90
38118;DHT22;23928;47.562;7.508;2022-10-16T05:33:41;13.60;99.90
38118;DHT22;23928;47.562;7.508;2022-10-16T05:36:08;13.60;99.90
38118;DHT22;23928;47.562;7.508;2022-10-16T05:38:35;13.70;99.90
38118;DHT22;23928;47.562;7.508;2022-10-16T05:41:01;13.70;99.90
38118;DHT22;23928;47.562;7.508;2022-10-16T05:43:28;13.60;99.90
38118;DHT22;23928;47.562;7.508;2022-10-16T05:45:57;13.60;99.90
38118;DHT22;23928;47.562;7.508;2022-10-16T05:48:24;13.60;99.90
38118;DHT22;23928;47.562;7.508;2022-10-16T05:50:57;13.60;99.90
38118;DHT22;23928;47.562;7.508;2022-10-16T05:53:23;13.60;99.90
38118;DHT22;23928;47.562;7.508;2022-10-16T05:55:55;13.60;99.90
38118;DHT22;23928;47.562;7.508;2022-10-16T05:58:21;13.50;99.90
38118;DHT22;23928;47.562;7.508;2022-10-16T06:01:15;13.60;99.90
38118;DHT22;23928;47.562;7.508;2022-10-16T06:03:40;13.60;99.90
38118;DHT22;23928;47.562;7.508;2022-10-16T06:08:35;13.70;99.90
38118;DHT22;23928;47.562;7.508;2022-10-16T06:11:02;13.70;99.90
38118;DHT22;23928;47.562;7.508;2022-10-16T06:13:28;13.70;99.90
38118;DHT22;23928;47.562;7.508;2022-10-16T06:15:56;13.70;99.90
38118;DHT22;23928;47.562;7.508;2022-10-16T06:18:22;13.70;99.90
38118;DHT22;23928;47.562;7.508;2022-10-16T06:20:47;13.80;99.90
38118;DHT22;23928;47.562;7.508;2022-10-16T06:23:13;13.80;99.90
38118;DHT22;23928;47.562;7.508;2022-10-16T06:25:38;13.80;99.90
38118;DHT22;23928;47.562;7.508;2022-10-16T06:28:04;13.80;99.90
38118;DHT22;23928;47.562;7.508;2022-10-16T06:30:29;13.80;99.90
38118;DHT22;23928;47.562;7.508;2022-10-16T06:32:55;13.70;99.90
38118;DHT22;23928;47.562;7.508;2022-10-16T06:35:20;13.80;99.90
38118;DHT22;23928;47.562;7.508;2022-10-16T06:37:46;13.80;99.90
38118;DHT22;23928;47.562;7.508;2022-10-16T06:40:12;13.90;99.90
38118;DHT22;23928;47.562;7.508;2022-10-16T06:42:39;13.90;99.90
38118;DHT22;23928;47.562;7.508;2022-10-16T07:00:33;14.30;99.90
38118;DHT22;23928;47.562;7.508;2022-10-16T07:02:59;14.20;99.90
38118;DHT22;23928;47.562;7.508;2022-10-16T07:05:24;14.20;99.90
38118;DHT22;23928;47.562;7.508;2022-10-16T07:07:50;14.30;99.90
38118;DHT22;23928;47.562;7.508;2022-10-16T07:10:15;14.40;99.90
38118;DHT22;23928;47.562;7.508;2022-10-16T07:12:43;14.60;99.90
38118;DHT22;23928;47.562;7.508;2022-10-16T07:15:10;14.80;99.90
38118;DHT22;23928;47.562;7.508;2022-10-16T07:17:35;14.90;99.90
38118;DHT22;23928;47.562;7.508;2022-10-16T07:20:01;15.00;99.90
38118;DHT22;23928;47.562;7.508;2022-10-16T07:22:28;15.10;99.90
38118;DHT22;23928;47.562;7.508;2022-10-16T07:24:53;15.20;99.90
38118;DHT22;23928;47.562;7.508;2022-10-16T07:32:26;15.50;99.90
38118;DHT22;23928;47.562;7.508;2022-10-16T07:37:21;15.50;99.90
38118;DHT22;23928;47.562;7.508;2022-10-16T07:39:46;15.70;99.90
38118;DHT22;23928;47.562;7.508;2022-10-16T07:44:45;15.90;99.90
38118;DHT22;23928;47.562;7.508;2022-10-16T07:47:11;16.20;99.90
38118;DHT22;23928;47.562;7.508;2022-10-16T07:49:36;16.30;99.90
38118;DHT22;23928;47.562;7.508;2022-10-16T07:52:02;16.40;99.90
38118;DHT22;23928;47.562;7.508;2022-10-16T07:54:28;16.40;99.90
38118;DHT22;23928;47.562;7.508;2022-10-16T07:56:53;16.40;99.90
38118;DHT22;23928;47.562;7.508;2022-10-16T07:59:19;16.40;99.90
38118;DHT22;23928;47.562;7.508;2022-10-16T08:01:44;16.40;99.90
38118;DHT22;23928;47.562;7.508;2022-10-16T08:04:10;16.30;99.90
38118;DHT22;23928;47.562;7.508;2022-10-16T08:06:37;16.30;99.90
38118;DHT22;23928;47.562;7.508;2022-10-16T08:09:03;16.30;99.90
38118;DHT22;23928;47.562;7.508;2022-10-16T08:11:29;16.40;99.90
38118;DHT22;23928;47.562;7.508;2022-10-16T08:13:55;16.50;99.90
38118;DHT22;23928;47.562;7.508;2022-10-16T08:16:20;16.50;99.90
38118;DHT22;23928;47.562;7.508;2022-10-16T08:18:46;16.50;99.90
38118;DHT22;23928;47.562;7.508;2022-10-16T08:21:15;16.50;99.90
38118;DHT22;23928;47.562;7.508;2022-10-16T08:23:41;16.50;99.90
38118;DHT22;23928;47.562;7.508;2022-10-16T08:26:08;16.50;99.90
38118;DHT22;23928;47.562;7.508;2022-10-16T08:28:34;16.50;99.90
38118;DHT22;23928;47.562;7.508;2022-10-16T08:31:14;16.60;99.90
38118;DHT22;23928;47.562;7.508;2022-10-16T08:33:42;16.60;99.90
38118;DHT22;23928;47.562;7.508;2022-10-16T08:36:10;16.60;99.90
38118;DHT22;23928;47.562;7.508;2022-10-16T08:38:36;16.70;99.90
38118;DHT22;23928;47.562;7.508;2022-10-16T08:41:26;16.70;99.90
38118;DHT22;23928;47.562;7.508;2022-10-16T08:49:42;16.40;99.90
38118;DHT22;23928;47.562;7.508;2022-10-16T08:52:12;16.50;99.90
38118;DHT22;23928;47.562;7.508;2022-10-16T08:54:42;16.70;99.90
38118;DHT22;23928;47.562;7.508;2022-10-16T08:57:19;16.90;99.90
38118;DHT22;23928;47.562;7.508;2022-10-16T08:59:45;17.00;99.90
38118;DHT22;23928;47.562;7.508;2022-10-16T09:10:26;16.80;99.90
38118;DHT22;23928;47.562;7.508;2022-10-16T09:23:42;17.60;99.90
38118;DHT22;23928;47.562;7.508;2022-10-16T09:26:13;18.00;99.90
38118;DHT22;23928;47.562;7.508;2022-10-16T09:28:39;18.30;99.90
38118;DHT22;23928;47.562;7.508;2022-10-16T09:31:05;18.60;99.90
38118;DHT22;23928;47.562;7.508;2022-10-16T09:33:36;18.80;99.90
38118;DHT22;23928;47.562;7.508;2022-10-16T09:36:05;19.00;99.90
38118;DHT22;23928;47.562;7.508;2022-10-16T09:38:33;19.00;99.90
38118;DHT22;23928;47.562;7.508;2022-10-16T09:41:01;19.00;99.90
38118;DHT22;23928;47.562;7.508;2022-10-16T09:43:41;18.90;99.90
38118;DHT22;23928;47.562;7.508;2022-10-16T09:46:31;18.90;99.90
38118;DHT22;23928;47.562;7.508;2022-10-16T09:49:05;18.90;99.90
38118;DHT22;23928;47.562;7.508;2022-10-16T09:51:33;18.80;99.90
38118;DHT22;23928;47.562;7.508;2022-10-16T09:56:30;18.90;99.90
38118;DHT22;23928;47.562;7.508;2022-10-16T09:59:00;18.90;99.90
38118;DHT22;23928;47.562;7.508;2022-10-16T10:01:36;19.10;99.90
38118;DHT22;23928;47.562;7.508;2022-10-16T10:04:06;19.30;99.90
38118;DHT22;23928;47.562;7.508;2022-10-16T10:06:37;19.40;99.90
38118;DHT22;23928;47.562;7.508;2022-10-16T10:09:21;19.50;99.90
38118;DHT22;23928;47.562;7.508;2022-10-16T10:11:58;19.60;99.90
38118;DHT22;23928;47.562;7.508;2022-10-16T10:14:44;19.70;99.90
38118;DHT22;23928;47.562;7.508;2022-10-16T10:17:15;19.80;99.90
38118;DHT22;23928;47.562;7.508;2022-10-16T10:22:28;19.90;99.90
38118;DHT22;23928;47.562;7.508;2022-10-16T10:33:23;20.10;99.90
38118;DHT22;23928;47.562;7.508;2022-10-16T10:46:10;20.40;99.90
38118;DHT22;23928;47.562;7.508;2022-10-16T10:54:28;20.70;99.90
38118;DHT22;23928;47.562;7.508;2022-10-16T10:57:10;20.90;99.90
38118;DHT22;23928;47.562;7.508;2022-10-16T10:59:54;20.70;99.90
38118;DHT22;23928;47.562;7.508;2022-10-16T11:02:48;20.70;99.90
38118;DHT22;23928;47.562;7.508;2022-10-16T11:05:36;20.70;99.90
38118;DHT22;23928;47.562;7.508;2022-10-16T11:08:13;20.90;99.90
38118;DHT22;23928;47.562;7.508;2022-10-16T11:10:54;21.00;99.90
38118;DHT22;23928;47.562;7.508;2022-10-16T11:16:00;21.40;99.90
38118;DHT22;23928;47.562;7.508;2022-10-16T11:18:50;21.40;99.90
38118;DHT22;23928;47.562;7.508;2022-10-16T11:21:19;21.40;99.90
38118;DHT22;23928;47.562;7.508;2022-10-16T11:24:00;21.40;99.90
38118;DHT22;23928;47.562;7.508;2022-10-16T11:26:30;21.20;99.90
38118;DHT22;23928;47.562;7.508;2022-10-16T11:28:58;21.30;99.90
38118;DHT22;23928;47.562;7.508;2022-10-16T11:31:49;21.30;99.90
38118;DHT22;23928;47.562;7.508;2022-10-16T11:34:34;21.50;99.90
38118;DHT22;23928;47.562;7.508;2022-10-16T11:37:36;21.50;99.90
38118;DHT22;23928;47.562;7.508;2022-10-16T11:40:31;21.80;99.90
38118;DHT22;23928;47.562;7.508;2022-10-16T11:43:22;21.90;99.90
38118;DHT22;23928;47.562;7.508;2022-10-16T11:45:52;21.90;99.90
38118;DHT22;23928;47.562;7.508;2022-10-16T11:51:25;21.70;99.90
38118;DHT22;23928;47.562;7.508;2022-10-16T11:56:44;21.80;99.90
38118;DHT22;23928;47.562;7.508;2022-10-16T11:59:30;21.80;99.90
38118;DHT22;23928;47.562;7.508;2022-10-16T12:02:35;21.80;99.90
38118;DHT22;23928;47.562;7.508;2022-10-16T12:08:09;22.30;99.90
38118;DHT22;23928;47.562;7.508;2022-10-16T12:10:37;22.40;99.90
38118;DHT22;23928;47.562;7.508;2022-10-16T12:13:05;22.40;99.90
38118;DHT22;23928;47.562;7.508;2022-10-16T12:15:32;22.50;99.90
38118;DHT22;23928;47.562;7.508;2022-10-16T12:17:59;22.70;99.90
38118;DHT22;23928;47.562;7.508;2022-10-16T12:20:30;22.60;99.90
38118;DHT22;23928;47.562;7.508;2022-10-16T12:23:04;22.70;99.90
38118;DHT22;23928;47.562;7.508;2022-10-16T12:25:33;22.50;99.90
38118;DHT22;23928;47.562;7.508;2022-10-16T12:28:17;22.40;99.90
38118;DHT22;23928;47.562;7.508;2022-10-16T12:30:43;22.40;99.90
38118;DHT22;23928;47.562;7.508;2022-10-16T12:33:26;22.50;99.90
38118;DHT22;23928;47.562;7.508;2022-10-16T12:35:53;22.80;99.90
38118;DHT22;23928;47.562;7.508;2022-10-16T12:41:01;22.40;99.90
38118;DHT22;23928;47.562;7.508;2022-10-16T12:43:40;22.30;99.90
38118;DHT22;23928;47.562;7.508;2022-10-16T12:48:42;22.50;99.90
38118;DHT22;23928;47.562;7.508;2022-10-16T12:54:17;22.50;99.90
38118;DHT22;23928;47.562;7.508;2022-10-16T12:57:08;22.60;99.90
38118;DHT22;23928;47.562;7.508;2022-10-16T13:00:11;22.60;99.90
38118;DHT22;23928;47.562;7.508;2022-10-16T13:02:58;22.70;99.90
38118;DHT22;23928;47.562;7.508;2022-10-16T13:05:52;22.80;99.90
38118;DHT22;23928;47.562;7.508;2022-10-16T13:11:17;22.80;99.90
38118;DHT22;23928;47.562;7.508;2022-10-16T13:14:02;22.70;99.90
38118;DHT22;23928;47.562;7.508;2022-10-16T13:16:59;22.90;99.90
38118;DHT22;23928;47.562;7.508;2022-10-16T13:19:38;22.90;99.90
38118;DHT22;23928;47.562;7.508;2022-10-16T13:22:27;22.80;99.90
38118;DHT22;23928;47.562;7.508;2022-10-16T13:28:06;22.60;99.90
38118;DHT22;23928;47.562;7.508;2022-10-16T13:30:59;22.80;99.90
38118;DHT22;23928;47.562;7.508;2022-10-16T13:33:37;22.80;99.90
38118;DHT22;23928;47.562;7.508;2022-10-16T13:36:04;22.60;99.90
38118;DHT22;23928;47.562;7.508;2022-10-16T13:38:32;22.40;99.90
38118;DHT22;23928;47.562;7.508;2022-10-16T13:41:03;22.40;99.90
38118;DHT22;23928;47.562;7.508;2022-10-16T13:43:53;22.80;99.90
38118;DHT22;23928;47.562;7.508;2022-10-16T13:46:25;22.70;99.90
38118;DHT22;23928;47.562;7.508;2022-10-16T13:48:59;22.70;99.90
38118;DHT22;23928;47.562;7.508;2022-10-16T13:51:25;22.60;99.90
38118;DHT22;23928;47.562;7.508;2022-10-16T13:53:51;22.50;99.90
38118;DHT22;23928;47.562;7.508;2022-10-16T13:56:19;22.30;99.90
38118;DHT22;23928;47.562;7.508;2022-10-16T13:58:45;22.30;99.90
38118;DHT22;23928;47.562;7.508;2022-10-16T14:01:27;22.50;99.90
38118;DHT22;23928;47.562;7.508;2022-10-16T14:04:01;22.40;99.90
38118;DHT22;23928;47.562;7.508;2022-10-16T14:06:27;22.50;99.90
38118;DHT22;23928;47.562;7.508;2022-10-16T14:11:53;22.50;99.90
38118;DHT22;23928;47.562;7.508;2022-10-16T14:14:19;22.60;99.90
38118;DHT22;23928;47.562;7.508;2022-10-16T14:16:45;22.60;99.90
38118;DHT22;23928;47.562;7.508;2022-10-16T14:19:25;22.50;99.90
38118;DHT22;23928;47.562;7.508;2022-10-16T14:21:52;22.30;99.90
38118;DHT22;23928;47.562;7.508;2022-10-16T14:24:33;22.30;99.90
38118;DHT22;23928;47.562;7.508;2022-10-16T14:27:00;22.20;99.90
38118;DHT22;23928;47.562;7.508;2022-10-16T14:29:28;22.40;99.90
38118;DHT22;23928;47.562;7.508;2022-10-16T14:32:00;22.50;99.90
38118;DHT22;23928;47.562;7.508;2022-10-16T14:37:13;22.30;99.90
38118;DHT22;23928;47.562;7.508;2022-10-16T14:39:40;22.30;99.90
38118;DHT22;23928;47.562;7.508;2022-10-16T14:42:14;22.40;99.90
38118;DHT22;23928;47.562;7.508;2022-10-16T14:44:42;22.20;99.90
38118;DHT22;23928;47.562;7.508;2022-10-16T14:47:09;22.30;99.90
38118;DHT22;23928;47.562;7.508;2022-10-16T14:49:38;22.50;99.90
38118;DHT22;23928;47.562;7.508;2022-10-16T14:52:09;22.30;99.90
38118;DHT22;23928;47.562;7.508;2022-10-16T14:54:35;22.30;99.90
38118;DHT22;23928;47.562;7.508;2022-10-16T14:57:01;22.30;99.90
38118;DHT22;23928;47.562;7.508;2022-10-16T14:59:36;22.40;99.90
38118;DHT22;23928;47.562;7.508;2022-10-16T15:02:32;22.30;99.90
38118;DHT22;23928;47.562;7.508;2022-10-16T15:05:23;22.20;99.90
38118;DHT22;23928;47.562;7.508;2022-10-16T15:07:50;22.20;99.90
38118;DHT22;23928;47.562;7.508;2022-10-16T15:10:17;22.10;99.90
38118;DHT22;23928;47.562;7.508;2022-10-16T15:12:44;22.10;99.90
38118;DHT22;23928;47.562;7.508;2022-10-16T15:15:37;22.30;99.90
38118;DHT22;23928;47.562;7.508;2022-10-16T15:18:04;22.20;99.90
38118;DHT22;23928;47.562;7.508;2022-10-16T15:20:35;22.20;99.90
38118;DHT22;23928;47.562;7.508;2022-10-16T15:23:02;22.00;99.90
38118;DHT22;23928;47.562;7.508;2022-10-16T15:25:38;21.60;99.90
38118;DHT22;23928;47.562;7.508;2022-10-16T15:28:07;21.30;99.90
38118;DHT22;23928;47.562;7.508;2022-10-16T15:30:34;21.20;99.90
38118;DHT22;23928;47.562;7.508;2022-10-16T15:33:00;21.50;99.90
38118;DHT22;23928;47.562;7.508;2022-10-16T15:35:26;21.20;99.90
38118;DHT22;23928;47.562;7.508;2022-10-16T15:37:51;20.80;99.90
38118;DHT22;23928;47.562;7.508;2022-10-16T15:40:18;20.80;99.90
38118;DHT22;23928;47.562;7.508;2022-10-16T15:42:44;20.90;99.90
38118;DHT22;23928;47.562;7.508;2022-10-16T15:45:11;20.90;99.90
38118;DHT22;23928;47.562;7.508;2022-10-16T15:47:37;20.70;99.90
38118;DHT22;23928;47.562;7.508;2022-10-16T15:50:04;20.50;99.90
38118;DHT22;23928;47.562;7.508;2022-10-16T15:52:29;20.40;99.90
38118;DHT22;23928;47.562;7.508;2022-10-16T15:54:57;20.30;99.90
38118;DHT22;23928;47.562;7.508;2022-10-16T15:57:23;20.20;99.90
38118;DHT22;23928;47.562;7.508;2022-10-16T15:59:49;20.20;99.90
38118;DHT22;23928;47.562;7.508;2022-10-16T16:02:15;20.10;99.90
38118;DHT22;23928;47.562;7.508;2022-10-16T16:04:41;20.10;99.90
38118;DHT22;23928;47.562;7.508;2022-10-16T16:07:06;19.90;99.90
38118;DHT22;23928;47.562;7.508;2022-10-16T16:09:35;19.80;99.90
38118;DHT22;23928;47.562;7.508;2022-10-16T16:12:00;19.80;99.90
38118;DHT22;23928;47.562;7.508;2022-10-16T16:14:27;19.60;99.90
38118;DHT22;23928;47.562;7.508;2022-10-16T16:16:58;19.40;99.90
38118;DHT22;23928;47.562;7.508;2022-10-16T16:19:24;19.30;99.90
38118;DHT22;23928;47.562;7.508;2022-10-16T16:21:50;19.30;99.90
38118;DHT22;23928;47.562;7.508;2022-10-16T16:24:16;19.10;99.90
38118;DHT22;23928;47.562;7.508;2022-10-16T16:26:42;19.10;99.90
38118;DHT22;23928;47.562;7.508;2022-10-16T16:29:12;19.10;99.90
38118;DHT22;23928;47.562;7.508;2022-10-16T16:31:39;19.00;99.90
38118;DHT22;23928;47.562;7.508;2022-10-16T16:34:05;18.80;99.90
38118;DHT22;23928;47.562;7.508;2022-10-16T16:36:31;18.80;99.90
38118;DHT22;23928;47.562;7.508;2022-10-16T16:38:57;18.90;99.90
38118;DHT22;23928;47.562;7.508;2022-10-16T16:41:25;18.80;99.90
38118;DHT22;23928;47.562;7.508;2022-10-16T16:43:52;18.80;99.90
38118;DHT22;23928;47.562;7.508;2022-10-16T16:46:18;18.50;99.90
38118;DHT22;23928;47.562;7.508;2022-10-16T16:48:45;18.40;99.90
38118;DHT22;23928;47.562;7.508;2022-10-16T16:51:16;18.50;99.90
38118;DHT22;23928;47.562;7.508;2022-10-16T16:53:47;18.40;99.90
38118;DHT22;23928;47.562;7.508;2022-10-16T16:56:14;18.30;99.90
38118;DHT22;23928;47.562;7.508;2022-10-16T16:58:39;18.20;99.90
38118;DHT22;23928;47.562;7.508;2022-10-16T17:01:06;18.10;99.90
38118;DHT22;23928;47.562;7.508;2022-10-16T17:03:35;18.00;99.90
38118;DHT22;23928;47.562;7.508;2022-10-16T17:06:06;17.90;99.90
38118;DHT22;23928;47.562;7.508;2022-10-16T17:08:33;17.80;99.90
38118;DHT22;23928;47.562;7.508;2022-10-16T17:10:59;17.70;99.90
38118;DHT22;23928;47.562;7.508;2022-10-16T17:13:30;17.60;99.90
38118;DHT22;23928;47.562;7.508;2022-10-16T17:15:56;17.60;99.90
38118;DHT22;23928;47.562;7.508;2022-10-16T17:18:23;17.60;99.90
38118;DHT22;23928;47.562;7.508;2022-10-16T17:20:49;17.50;99.90
38118;DHT22;23928;47.562;7.508;2022-10-16T17:23:17;17.60;99.90
38118;DHT22;23928;47.562;7.508;2022-10-16T17:25:43;17.40;99.90
38118;DHT22;23928;47.562;7.508;2022-10-16T17:28:10;17.30;99.90
38118;DHT22;23928;47.562;7.508;2022-10-16T17:30:37;17.20;99.90
38118;DHT22;23928;47.562;7.508;2022-10-16T17:33:04;17.20;99.90
38118;DHT22;23928;47.562;7.508;2022-10-16T17:35:45;17.30;99.90
38118;DHT22;23928;47.562;7.508;2022-10-16T17:38:12;17.30;99.90
38118;DHT22;23928;47.562;7.508;2022-10-16T17:40:39;17.20;99.90
38118;DHT22;23928;47.562;7.508;2022-10-16T17:43:05;17.20;99.90
38118;DHT22;23928;47.562;7.508;2022-10-16T17:45:36;17.00;99.90
38118;DHT22;23928;47.562;7.508;2022-10-16T17:48:01;17.00;99.90